首页
METAR-TAF:

METAR-TAF

机场 :

烏迪內, 意大利

纬度: 45-59N, 经度: 013-02E, 海拔: 51米

当前天气观测

该预报发布于11小时和28分钟前的13:55 UTC
风速7节,风向东南
温度 21°C
湿度 64%
气压 1015 hPa
能见度10公里或以上
散云层高于2500英尺

METAR: LIPI 161355Z 13007KT 9999 SCT025 21/14 Q1015 RMK SCT VIS MIN 9999 WIND THR06 19008KT WIND THR24 18006KT BLU

时间: 03:23 (01:23 UTC)

预报

该预报发布于14小时和23分钟前的11:00 UTC
预报有效从16日的 12点(UTC)到 16日的 21点(UTC)
风速5节,风向
能见度10公里或以上
少量云层高于1500英尺
散云层高于3000英尺

TAF: LIPI 161100Z 1612/1621 18005KT 9999 FEW015 SCT030

超过4000个机场的气象观测和天气预报(METAR&TAF报告)。

可查询的气象台以黄色和红色小点在地图上表示。

将鼠标移到小点上方,可查看气象台名称。

然后点击查看天气观测和预报。

如需切换地图:点击带黑十字的绿色按钮放大地图;点击带横线的绿色按钮缩小地图;或者点击绿色箭头查看邻近地区的地图。


METAR-TAF: